sensor_id;sensor_type;location;lat;lon;timestamp;temperature;humidity
24772;DHT22;12870;52.274;9.754;2023-09-18T00:02:13;19.80;99.90
24772;DHT22;12870;52.274;9.754;2023-09-18T00:04:39;19.80;99.90
24772;DHT22;12870;52.274;9.754;2023-09-18T00:07:04;19.70;99.90
24772;DHT22;12870;52.274;9.754;2023-09-18T00:09:30;19.70;99.90
24772;DHT22;12870;52.274;9.754;2023-09-18T00:11:56;19.70;99.90
24772;DHT22;12870;52.274;9.754;2023-09-18T00:14:21;19.70;99.90
24772;DHT22;12870;52.274;9.754;2023-09-18T00:16:47;19.70;99.90
24772;DHT22;12870;52.274;9.754;2023-09-18T00:19:13;19.70;99.90
24772;DHT22;12870;52.274;9.754;2023-09-18T00:21:39;19.70;99.90
24772;DHT22;12870;52.274;9.754;2023-09-18T00:24:04;19.70;99.90
24772;DHT22;12870;52.274;9.754;2023-09-18T00:26:30;19.70;99.90
24772;DHT22;12870;52.274;9.754;2023-09-18T00:28:56;19.70;99.90
24772;DHT22;12870;52.274;9.754;2023-09-18T00:31:21;19.80;99.90
24772;DHT22;12870;52.274;9.754;2023-09-18T00:33:47;19.80;99.90
24772;DHT22;12870;52.274;9.754;2023-09-18T00:36:13;19.70;99.90
24772;DHT22;12870;52.274;9.754;2023-09-18T00:38:39;19.70;99.90
24772;DHT22;12870;52.274;9.754;2023-09-18T00:41:04;19.70;99.90
24772;DHT22;12870;52.274;9.754;2023-09-18T00:43:31;19.70;99.90
24772;DHT22;12870;52.274;9.754;2023-09-18T00:45:57;19.70;99.90
24772;DHT22;12870;52.274;9.754;2023-09-18T00:48:23;19.70;99.90
24772;DHT22;12870;52.274;9.754;2023-09-18T00:50:49;19.70;99.90
24772;DHT22;12870;52.274;9.754;2023-09-18T00:53:18;19.70;99.90
24772;DHT22;12870;52.274;9.754;2023-09-18T00:55:45;19.70;99.90
24772;DHT22;12870;52.274;9.754;2023-09-18T00:58:11;19.60;99.90
24772;DHT22;12870;52.274;9.754;2023-09-18T01:00:37;19.60;99.90
24772;DHT22;12870;52.274;9.754;2023-09-18T01:03:04;19.70;99.90
24772;DHT22;12870;52.274;9.754;2023-09-18T01:05:33;19.60;99.90
24772;DHT22;12870;52.274;9.754;2023-09-18T01:07:59;19.60;99.90
24772;DHT22;12870;52.274;9.754;2023-09-18T01:10:30;19.60;99.90
24772;DHT22;12870;52.274;9.754;2023-09-18T01:13:04;19.60;99.90
24772;DHT22;12870;52.274;9.754;2023-09-18T01:15:41;19.50;99.90
24772;DHT22;12870;52.274;9.754;2023-09-18T01:18:10;19.50;99.90
24772;DHT22;12870;52.274;9.754;2023-09-18T01:20:36;19.50;99.90
24772;DHT22;12870;52.274;9.754;2023-09-18T01:23:02;19.50;99.90
24772;DHT22;12870;52.274;9.754;2023-09-18T01:25:27;19.50;99.90
24772;DHT22;12870;52.274;9.754;2023-09-18T01:27:55;19.50;99.90
24772;DHT22;12870;52.274;9.754;2023-09-18T01:30:21;19.50;99.90
24772;DHT22;12870;52.274;9.754;2023-09-18T01:32:47;19.50;99.90
24772;DHT22;12870;52.274;9.754;2023-09-18T01:35:13;19.50;99.90
24772;DHT22;12870;52.274;9.754;2023-09-18T01:37:39;19.50;99.90
24772;DHT22;12870;52.274;9.754;2023-09-18T01:40:06;19.50;99.90
24772;DHT22;12870;52.274;9.754;2023-09-18T01:42:34;19.50;99.90
24772;DHT22;12870;52.274;9.754;2023-09-18T01:45:00;19.50;99.90
24772;DHT22;12870;52.274;9.754;2023-09-18T01:47:26;19.60;99.90
24772;DHT22;12870;52.274;9.754;2023-09-18T01:49:54;19.60;99.90
24772;DHT22;12870;52.274;9.754;2023-09-18T01:52:20;19.60;99.90
24772;DHT22;12870;52.274;9.754;2023-09-18T01:54:46;19.50;99.90
24772;DHT22;12870;52.274;9.754;2023-09-18T01:57:11;19.60;99.90
24772;DHT22;12870;52.274;9.754;2023-09-18T01:59:37;19.60;99.90
24772;DHT22;12870;52.274;9.754;2023-09-18T02:02:05;19.60;99.90
24772;DHT22;12870;52.274;9.754;2023-09-18T02:04:33;19.60;99.90
24772;DHT22;12870;52.274;9.754;2023-09-18T02:06:59;19.60;99.90
24772;DHT22;12870;52.274;9.754;2023-09-18T02:09:25;19.50;99.90
24772;DHT22;12870;52.274;9.754;2023-09-18T02:11:50;19.50;99.90
24772;DHT22;12870;52.274;9.754;2023-09-18T02:14:16;19.50;99.90
24772;DHT22;12870;52.274;9.754;2023-09-18T02:16:43;19.50;99.90
24772;DHT22;12870;52.274;9.754;2023-09-18T02:19:10;19.60;99.90
24772;DHT22;12870;52.274;9.754;2023-09-18T02:21:36;19.50;99.90
24772;DHT22;12870;52.274;9.754;2023-09-18T02:24:02;19.60;99.90
24772;DHT22;12870;52.274;9.754;2023-09-18T02:26:28;19.50;99.90
24772;DHT22;12870;52.274;9.754;2023-09-18T02:28:54;19.50;99.90
24772;DHT22;12870;52.274;9.754;2023-09-18T02:31:21;19.60;99.90
24772;DHT22;12870;52.274;9.754;2023-09-18T02:33:47;19.60;99.90
24772;DHT22;12870;52.274;9.754;2023-09-18T02:36:13;19.60;99.90
24772;DHT22;12870;52.274;9.754;2023-09-18T02:38:39;19.50;99.90
24772;DHT22;12870;52.274;9.754;2023-09-18T02:41:04;19.50;99.90
24772;DHT22;12870;52.274;9.754;2023-09-18T02:43:30;19.50;99.90
24772;DHT22;12870;52.274;9.754;2023-09-18T02:45:56;19.40;99.90
24772;DHT22;12870;52.274;9.754;2023-09-18T02:48:21;19.40;99.90
24772;DHT22;12870;52.274;9.754;2023-09-18T02:50:47;19.40;99.90
24772;DHT22;12870;52.274;9.754;2023-09-18T02:53:23;19.40;99.90
24772;DHT22;12870;52.274;9.754;2023-09-18T02:55:51;19.40;99.90
24772;DHT22;12870;52.274;9.754;2023-09-18T02:58:17;19.40;99.90
24772;DHT22;12870;52.274;9.754;2023-09-18T03:00:45;19.40;99.90
24772;DHT22;12870;52.274;9.754;2023-09-18T03:03:12;19.40;99.90
24772;DHT22;12870;52.274;9.754;2023-09-18T03:05:38;19.40;99.90
24772;DHT22;12870;52.274;9.754;2023-09-18T03:08:04;19.40;99.90
24772;DHT22;12870;52.274;9.754;2023-09-18T03:10:34;19.40;99.90
24772;DHT22;12870;52.274;9.754;2023-09-18T03:13:01;19.40;99.90
24772;DHT22;12870;52.274;9.754;2023-09-18T03:15:27;19.40;99.90
24772;DHT22;12870;52.274;9.754;2023-09-18T03:17:53;19.40;99.90
24772;DHT22;12870;52.274;9.754;2023-09-18T03:20:22;19.40;99.90
24772;DHT22;12870;52.274;9.754;2023-09-18T03:22:48;19.40;99.90
24772;DHT22;12870;52.274;9.754;2023-09-18T03:25:14;19.40;99.90
24772;DHT22;12870;52.274;9.754;2023-09-18T03:27:39;19.40;99.90
24772;DHT22;12870;52.274;9.754;2023-09-18T03:30:05;19.30;99.90
24772;DHT22;12870;52.274;9.754;2023-09-18T03:32:32;19.30;99.90
24772;DHT22;12870;52.274;9.754;2023-09-18T03:34:58;19.30;99.90
24772;DHT22;12870;52.274;9.754;2023-09-18T03:37:23;19.20;99.90
24772;DHT22;12870;52.274;9.754;2023-09-18T03:39:49;19.20;99.90
24772;DHT22;12870;52.274;9.754;2023-09-18T03:42:14;19.20;99.90
24772;DHT22;12870;52.274;9.754;2023-09-18T03:44:40;19.20;99.90
24772;DHT22;12870;52.274;9.754;2023-09-18T03:47:06;19.20;99.90
24772;DHT22;12870;52.274;9.754;2023-09-18T03:49:31;19.20;99.90
24772;DHT22;12870;52.274;9.754;2023-09-18T03:51:57;19.10;99.90
24772;DHT22;12870;52.274;9.754;2023-09-18T03:54:23;19.10;99.90
24772;DHT22;12870;52.274;9.754;2023-09-18T03:56:48;19.10;99.90
24772;DHT22;12870;52.274;9.754;2023-09-18T03:59:14;19.10;99.90
24772;DHT22;12870;52.274;9.754;2023-09-18T04:01:39;19.10;99.90
24772;DHT22;12870;52.274;9.754;2023-09-18T04:04:06;19.10;99.90
24772;DHT22;12870;52.274;9.754;2023-09-18T04:06:42;19.00;99.90
24772;DHT22;12870;52.274;9.754;2023-09-18T04:09:09;19.00;99.90
24772;DHT22;12870;52.274;9.754;2023-09-18T04:11:35;19.00;99.90
24772;DHT22;12870;52.274;9.754;2023-09-18T04:14:01;19.00;99.90
24772;DHT22;12870;52.274;9.754;2023-09-18T04:16:28;18.90;99.90
24772;DHT22;12870;52.274;9.754;2023-09-18T04:18:56;18.90;99.90
24772;DHT22;12870;52.274;9.754;2023-09-18T04:21:22;18.90;99.90
24772;DHT22;12870;52.274;9.754;2023-09-18T04:23:49;18.90;99.90
24772;DHT22;12870;52.274;9.754;2023-09-18T04:26:21;18.80;99.90
24772;DHT22;12870;52.274;9.754;2023-09-18T04:28:46;18.80;99.90
24772;DHT22;12870;52.274;9.754;2023-09-18T04:31:13;18.80;99.90
24772;DHT22;12870;52.274;9.754;2023-09-18T04:33:38;18.70;99.90
24772;DHT22;12870;52.274;9.754;2023-09-18T04:36:04;18.70;99.90
24772;DHT22;12870;52.274;9.754;2023-09-18T04:38:30;18.70;99.90
24772;DHT22;12870;52.274;9.754;2023-09-18T04:40:59;18.70;99.90
24772;DHT22;12870;52.274;9.754;2023-09-18T04:43:25;18.70;99.90
24772;DHT22;12870;52.274;9.754;2023-09-18T04:45:51;18.60;99.90
24772;DHT22;12870;52.274;9.754;2023-09-18T04:48:17;18.60;99.90
24772;DHT22;12870;52.274;9.754;2023-09-18T04:50:43;18.60;99.90
24772;DHT22;12870;52.274;9.754;2023-09-18T04:53:09;18.60;99.90
24772;DHT22;12870;52.274;9.754;2023-09-18T04:55:35;18.60;99.90
24772;DHT22;12870;52.274;9.754;2023-09-18T04:58:01;18.70;99.90
24772;DHT22;12870;52.274;9.754;2023-09-18T05:00:27;18.70;99.90
24772;DHT22;12870;52.274;9.754;2023-09-18T05:02:54;18.70;99.90
24772;DHT22;12870;52.274;9.754;2023-09-18T05:05:20;18.80;99.90
24772;DHT22;12870;52.274;9.754;2023-09-18T05:07:46;18.80;99.90
24772;DHT22;12870;52.274;9.754;2023-09-18T05:10:12;18.80;99.90
24772;DHT22;12870;52.274;9.754;2023-09-18T05:12:39;18.90;99.90
24772;DHT22;12870;52.274;9.754;2023-09-18T05:15:06;18.90;99.90
24772;DHT22;12870;52.274;9.754;2023-09-18T05:17:46;18.90;99.90
24772;DHT22;12870;52.274;9.754;2023-09-18T05:20:13;19.00;99.90
24772;DHT22;12870;52.274;9.754;2023-09-18T05:22:41;19.10;99.90
24772;DHT22;12870;52.274;9.754;2023-09-18T05:25:08;19.10;99.90
24772;DHT22;12870;52.274;9.754;2023-09-18T05:27:35;19.20;99.90
24772;DHT22;12870;52.274;9.754;2023-09-18T05:30:01;19.30;99.90
24772;DHT22;12870;52.274;9.754;2023-09-18T05:32:27;19.40;99.90
24772;DHT22;12870;52.274;9.754;2023-09-18T05:34:52;19.50;99.90
24772;DHT22;12870;52.274;9.754;2023-09-18T05:37:18;19.50;99.90
24772;DHT22;12870;52.274;9.754;2023-09-18T05:39:44;19.60;99.90
24772;DHT22;12870;52.274;9.754;2023-09-18T05:42:09;19.70;99.90
24772;DHT22;12870;52.274;9.754;2023-09-18T05:44:35;19.80;99.90
24772;DHT22;12870;52.274;9.754;2023-09-18T05:47:04;19.80;99.90
24772;DHT22;12870;52.274;9.754;2023-09-18T05:49:30;19.90;99.90
24772;DHT22;12870;52.274;9.754;2023-09-18T05:51:56;20.00;99.90
24772;DHT22;12870;52.274;9.754;2023-09-18T05:54:22;20.00;99.90
24772;DHT22;12870;52.274;9.754;2023-09-18T05:56:48;20.10;99.90
24772;DHT22;12870;52.274;9.754;2023-09-18T05:59:13;20.10;99.90
24772;DHT22;12870;52.274;9.754;2023-09-18T06:01:42;20.20;99.90
24772;DHT22;12870;52.274;9.754;2023-09-18T06:04:07;20.20;99.90
24772;DHT22;12870;52.274;9.754;2023-09-18T06:06:33;20.30;99.90
24772;DHT22;12870;52.274;9.754;2023-09-18T06:08:59;20.40;99.90
24772;DHT22;12870;52.274;9.754;2023-09-18T06:11:25;20.40;99.90
24772;DHT22;12870;52.274;9.754;2023-09-18T06:13:51;20.50;99.90
24772;DHT22;12870;52.274;9.754;2023-09-18T06:16:16;20.50;99.90
24772;DHT22;12870;52.274;9.754;2023-09-18T06:18:42;20.60;99.90
24772;DHT22;12870;52.274;9.754;2023-09-18T06:21:09;20.60;99.90
24772;DHT22;12870;52.274;9.754;2023-09-18T06:23:35;20.70;99.90
24772;DHT22;12870;52.274;9.754;2023-09-18T06:26:01;20.80;99.90
24772;DHT22;12870;52.274;9.754;2023-09-18T06:28:27;20.90;99.90
24772;DHT22;12870;52.274;9.754;2023-09-18T06:30:53;21.20;99.90
24772;DHT22;12870;52.274;9.754;2023-09-18T06:33:19;21.30;99.90
24772;DHT22;12870;52.274;9.754;2023-09-18T06:35:45;21.50;99.90
24772;DHT22;12870;52.274;9.754;2023-09-18T06:38:10;21.60;99.90
24772;DHT22;12870;52.274;9.754;2023-09-18T06:40:39;21.80;99.90
24772;DHT22;12870;52.274;9.754;2023-09-18T06:43:05;21.90;99.90
24772;DHT22;12870;52.274;9.754;2023-09-18T06:45:30;22.00;99.90
24772;DHT22;12870;52.274;9.754;2023-09-18T06:47:58;22.10;99.90
24772;DHT22;12870;52.274;9.754;2023-09-18T06:50:23;22.10;99.90
24772;DHT22;12870;52.274;9.754;2023-09-18T06:52:49;22.20;99.90
24772;DHT22;12870;52.274;9.754;2023-09-18T06:55:15;22.20;99.90
24772;DHT22;12870;52.274;9.754;2023-09-18T06:57:42;22.20;99.90
24772;DHT22;12870;52.274;9.754;2023-09-18T07:00:08;22.30;99.90
24772;DHT22;12870;52.274;9.754;2023-09-18T07:02:34;22.30;99.90
24772;DHT22;12870;52.274;9.754;2023-09-18T07:04:59;22.40;99.90
24772;DHT22;12870;52.274;9.754;2023-09-18T07:07:25;22.40;99.90
24772;DHT22;12870;52.274;9.754;2023-09-18T07:09:51;22.40;99.90
24772;DHT22;12870;52.274;9.754;2023-09-18T07:12:17;22.40;99.90
24772;DHT22;12870;52.274;9.754;2023-09-18T07:14:46;22.40;99.90
24772;DHT22;12870;52.274;9.754;2023-09-18T07:17:12;22.40;99.90
24772;DHT22;12870;52.274;9.754;2023-09-18T07:19:38;22.30;99.90
24772;DHT22;12870;52.274;9.754;2023-09-18T07:22:04;22.30;99.90
24772;DHT22;12870;52.274;9.754;2023-09-18T07:24:29;22.30;99.90
24772;DHT22;12870;52.274;9.754;2023-09-18T07:26:55;22.30;99.90
24772;DHT22;12870;52.274;9.754;2023-09-18T07:29:23;22.20;99.90
24772;DHT22;12870;52.274;9.754;2023-09-18T07:31:51;22.20;99.90
24772;DHT22;12870;52.274;9.754;2023-09-18T07:34:17;22.30;99.90
24772;DHT22;12870;52.274;9.754;2023-09-18T07:36:43;22.30;99.90
24772;DHT22;12870;52.274;9.754;2023-09-18T07:39:12;22.20;99.90
24772;DHT22;12870;52.274;9.754;2023-09-18T07:41:37;22.30;99.90
24772;DHT22;12870;52.274;9.754;2023-09-18T07:44:03;22.30;99.90
24772;DHT22;12870;52.274;9.754;2023-09-18T07:46:29;22.30;99.90
24772;DHT22;12870;52.274;9.754;2023-09-18T07:48:55;22.40;99.90
24772;DHT22;12870;52.274;9.754;2023-09-18T07:51:21;22.50;99.90
24772;DHT22;12870;52.274;9.754;2023-09-18T07:53:46;22.50;99.90
24772;DHT22;12870;52.274;9.754;2023-09-18T07:56:12;22.50;99.90
24772;DHT22;12870;52.274;9.754;2023-09-18T07:58:38;22.60;99.90
24772;DHT22;12870;52.274;9.754;2023-09-18T08:01:07;22.70;99.90
24772;DHT22;12870;52.274;9.754;2023-09-18T08:03:34;22.80;99.90
24772;DHT22;12870;52.274;9.754;2023-09-18T08:06:00;22.90;99.90
24772;DHT22;12870;52.274;9.754;2023-09-18T08:08:26;23.00;99.90
24772;DHT22;12870;52.274;9.754;2023-09-18T08:10:52;23.00;99.90
24772;DHT22;12870;52.274;9.754;2023-09-18T08:13:18;23.10;99.90
24772;DHT22;12870;52.274;9.754;2023-09-18T08:15:45;23.10;99.90
24772;DHT22;12870;52.274;9.754;2023-09-18T08:18:11;23.20;99.90
24772;DHT22;12870;52.274;9.754;2023-09-18T08:20:42;23.30;99.90
24772;DHT22;12870;52.274;9.754;2023-09-18T08:23:09;23.30;99.90
24772;DHT22;12870;52.274;9.754;2023-09-18T08:25:35;23.30;99.90
24772;DHT22;12870;52.274;9.754;2023-09-18T08:28:00;23.30;99.90
24772;DHT22;12870;52.274;9.754;2023-09-18T08:30:26;23.30;99.90
24772;DHT22;12870;52.274;9.754;2023-09-18T08:32:52;23.40;99.90
24772;DHT22;12870;52.274;9.754;2023-09-18T08:35:17;23.50;99.90
24772;DHT22;12870;52.274;9.754;2023-09-18T08:37:43;23.60;99.90
24772;DHT22;12870;52.274;9.754;2023-09-18T08:40:13;23.80;99.90
24772;DHT22;12870;52.274;9.754;2023-09-18T08:42:44;23.80;99.90
24772;DHT22;12870;52.274;9.754;2023-09-18T08:45:15;24.00;99.90
24772;DHT22;12870;52.274;9.754;2023-09-18T08:47:45;24.00;99.90
24772;DHT22;12870;52.274;9.754;2023-09-18T08:50:12;24.10;99.90
24772;DHT22;12870;52.274;9.754;2023-09-18T08:52:39;24.10;99.90
24772;DHT22;12870;52.274;9.754;2023-09-18T08:55:06;24.20;99.90
24772;DHT22;12870;52.274;9.754;2023-09-18T08:57:32;24.30;99.90
24772;DHT22;12870;52.274;9.754;2023-09-18T08:59:58;24.30;99.90
24772;DHT22;12870;52.274;9.754;2023-09-18T09:02:29;24.40;99.90
24772;DHT22;12870;52.274;9.754;2023-09-18T09:04:55;24.40;99.90
24772;DHT22;12870;52.274;9.754;2023-09-18T09:07:21;24.30;99.90
24772;DHT22;12870;52.274;9.754;2023-09-18T09:09:46;24.30;99.90
24772;DHT22;12870;52.274;9.754;2023-09-18T09:12:12;24.30;99.90
24772;DHT22;12870;52.274;9.754;2023-09-18T09:14:38;24.30;99.90
24772;DHT22;12870;52.274;9.754;2023-09-18T09:17:04;24.20;99.90
24772;DHT22;12870;52.274;9.754;2023-09-18T09:19:33;24.10;99.90
24772;DHT22;12870;52.274;9.754;2023-09-18T09:22:01;24.10;99.90
24772;DHT22;12870;52.274;9.754;2023-09-18T09:24:37;24.20;99.90
24772;DHT22;12870;52.274;9.754;2023-09-18T09:27:03;24.10;99.90
24772;DHT22;12870;52.274;9.754;2023-09-18T09:29:29;24.20;99.90
24772;DHT22;12870;52.274;9.754;2023-09-18T09:31:55;24.20;99.90
24772;DHT22;12870;52.274;9.754;2023-09-18T09:34:27;24.30;99.90
24772;DHT22;12870;52.274;9.754;2023-09-18T09:36:55;24.30;99.90
24772;DHT22;12870;52.274;9.754;2023-09-18T09:39:21;24.30;99.90
24772;DHT22;12870;52.274;9.754;2023-09-18T09:41:53;24.20;99.90
24772;DHT22;12870;52.274;9.754;2023-09-18T09:44:19;24.20;99.90
24772;DHT22;12870;52.274;9.754;2023-09-18T09:46:50;24.10;99.90
24772;DHT22;12870;52.274;9.754;2023-09-18T09:49:17;24.10;99.90
24772;DHT22;12870;52.274;9.754;2023-09-18T09:51:45;24.00;99.90
24772;DHT22;12870;52.274;9.754;2023-09-18T09:54:11;24.00;99.90
24772;DHT22;12870;52.274;9.754;2023-09-18T09:56:49;24.00;99.90
24772;DHT22;12870;52.274;9.754;2023-09-18T09:59:19;24.00;99.90
24772;DHT22;12870;52.274;9.754;2023-09-18T10:01:48;24.00;99.90
24772;DHT22;12870;52.274;9.754;2023-09-18T10:04:19;24.10;99.90
24772;DHT22;12870;52.274;9.754;2023-09-18T10:06:54;24.00;99.90
24772;DHT22;12870;52.274;9.754;2023-09-18T10:09:22;24.10;99.90
24772;DHT22;12870;52.274;9.754;2023-09-18T10:11:52;24.30;99.90
24772;DHT22;12870;52.274;9.754;2023-09-18T10:14:32;24.20;99.90
24772;DHT22;12870;52.274;9.754;2023-09-18T10:17:09;24.30;99.90
24772;DHT22;12870;52.274;9.754;2023-09-18T10:22:33;24.30;99.90
24772;DHT22;12870;52.274;9.754;2023-09-18T10:25:23;24.50;99.90
24772;DHT22;12870;52.274;9.754;2023-09-18T10:27:50;24.30;99.90
24772;DHT22;12870;52.274;9.754;2023-09-18T10:30:20;24.40;99.90
24772;DHT22;12870;52.274;9.754;2023-09-18T10:32:50;24.50;99.90
24772;DHT22;12870;52.274;9.754;2023-09-18T10:35:16;24.30;99.90
24772;DHT22;12870;52.274;9.754;2023-09-18T10:37:42;24.30;99.90
24772;DHT22;12870;52.274;9.754;2023-09-18T10:40:11;24.40;99.90
24772;DHT22;12870;52.274;9.754;2023-09-18T10:42:41;24.50;99.90
24772;DHT22;12870;52.274;9.754;2023-09-18T10:45:11;24.70;99.90
24772;DHT22;12870;52.274;9.754;2023-09-18T10:47:43;24.60;99.90
24772;DHT22;12870;52.274;9.754;2023-09-18T10:50:25;24.60;99.90
24772;DHT22;12870;52.274;9.754;2023-09-18T10:52:51;24.60;99.90
24772;DHT22;12870;52.274;9.754;2023-09-18T10:55:17;24.40;99.90
24772;DHT22;12870;52.274;9.754;2023-09-18T10:57:54;24.40;99.90
24772;DHT22;12870;52.274;9.754;2023-09-18T11:00:31;24.40;99.90
24772;DHT22;12870;52.274;9.754;2023-09-18T11:03:16;24.50;99.90
24772;DHT22;12870;52.274;9.754;2023-09-18T11:05:47;24.40;99.90
24772;DHT22;12870;52.274;9.754;2023-09-18T11:10:59;24.70;99.90
24772;DHT22;12870;52.274;9.754;2023-09-18T11:13:30;24.80;99.90
24772;DHT22;12870;52.274;9.754;2023-09-18T11:19:08;25.30;99.90
24772;DHT22;12870;52.274;9.754;2023-09-18T11:21:35;25.50;99.90
24772;DHT22;12870;52.274;9.754;2023-09-18T11:24:07;25.20;99.90
24772;DHT22;12870;52.274;9.754;2023-09-18T11:26:47;25.40;99.90
24772;DHT22;12870;52.274;9.754;2023-09-18T11:29:21;25.30;99.90
24772;DHT22;12870;52.274;9.754;2023-09-18T11:31:55;25.20;99.90
24772;DHT22;12870;52.274;9.754;2023-09-18T11:34:29;25.30;99.90
24772;DHT22;12870;52.274;9.754;2023-09-18T11:37:02;25.40;99.90
24772;DHT22;12870;52.274;9.754;2023-09-18T11:39:44;25.40;99.90
24772;DHT22;12870;52.274;9.754;2023-09-18T11:42:20;25.40;99.90
24772;DHT22;12870;52.274;9.754;2023-09-18T11:44:54;25.10;99.90
24772;DHT22;12870;52.274;9.754;2023-09-18T11:47:24;24.80;99.90
24772;DHT22;12870;52.274;9.754;2023-09-18T11:52:30;24.60;99.90
24772;DHT22;12870;52.274;9.754;2023-09-18T11:54:58;24.50;99.90
24772;DHT22;12870;52.274;9.754;2023-09-18T11:57:24;24.50;99.90
24772;DHT22;12870;52.274;9.754;2023-09-18T11:59:51;24.50;99.90
24772;DHT22;12870;52.274;9.754;2023-09-18T12:02:26;24.50;99.90
24772;DHT22;12870;52.274;9.754;2023-09-18T12:04:56;24.50;99.90
24772;DHT22;12870;52.274;9.754;2023-09-18T12:07:23;24.60;99.90
24772;DHT22;12870;52.274;9.754;2023-09-18T12:09:50;24.60;99.90
24772;DHT22;12870;52.274;9.754;2023-09-18T12:12:16;24.70;99.90
24772;DHT22;12870;52.274;9.754;2023-09-18T12:14:43;24.70;99.90
24772;DHT22;12870;52.274;9.754;2023-09-18T12:17:14;24.70;99.90
24772;DHT22;12870;52.274;9.754;2023-09-18T12:19:51;24.80;99.90
24772;DHT22;12870;52.274;9.754;2023-09-18T12:22:23;24.90;99.90
24772;DHT22;12870;52.274;9.754;2023-09-18T12:24:50;25.00;99.90
24772;DHT22;12870;52.274;9.754;2023-09-18T12:27:15;24.90;99.90
24772;DHT22;12870;52.274;9.754;2023-09-18T12:29:42;24.80;99.90
24772;DHT22;12870;52.274;9.754;2023-09-18T12:32:11;24.90;99.90
24772;DHT22;12870;52.274;9.754;2023-09-18T12:34:43;25.00;99.90
24772;DHT22;12870;52.274;9.754;2023-09-18T12:37:09;25.00;99.90
24772;DHT22;12870;52.274;9.754;2023-09-18T12:39:37;25.10;99.90
24772;DHT22;12870;52.274;9.754;2023-09-18T12:42:04;25.00;99.90
24772;DHT22;12870;52.274;9.754;2023-09-18T12:44:30;24.90;99.90
24772;DHT22;12870;52.274;9.754;2023-09-18T12:46:57;25.10;99.90
24772;DHT22;12870;52.274;9.754;2023-09-18T12:49:23;25.20;99.90
24772;DHT22;12870;52.274;9.754;2023-09-18T12:52:01;25.00;99.90
24772;DHT22;12870;52.274;9.754;2023-09-18T12:54:37;24.90;99.90
24772;DHT22;12870;52.274;9.754;2023-09-18T12:57:08;24.90;99.90
24772;DHT22;12870;52.274;9.754;2023-09-18T12:59:36;24.80;99.90
24772;DHT22;12870;52.274;9.754;2023-09-18T13:02:04;24.80;99.90
24772;DHT22;12870;52.274;9.754;2023-09-18T13:04:36;24.70;99.90
24772;DHT22;12870;52.274;9.754;2023-09-18T13:07:06;24.70;99.90
24772;DHT22;12870;52.274;9.754;2023-09-18T13:09:34;24.80;99.90
24772;DHT22;12870;52.274;9.754;2023-09-18T13:12:01;24.80;99.90
24772;DHT22;12870;52.274;9.754;2023-09-18T13:14:26;24.80;99.90
24772;DHT22;12870;52.274;9.754;2023-09-18T13:16:52;24.70;99.90
24772;DHT22;12870;52.274;9.754;2023-09-18T13:19:18;24.70;99.90
24772;DHT22;12870;52.274;9.754;2023-09-18T13:21:51;24.60;99.90
24772;DHT22;12870;52.274;9.754;2023-09-18T13:24:26;24.60;99.90
24772;DHT22;12870;52.274;9.754;2023-09-18T13:26:53;24.60;99.90
24772;DHT22;12870;52.274;9.754;2023-09-18T13:29:20;24.60;99.90
24772;DHT22;12870;52.274;9.754;2023-09-18T13:31:45;24.50;99.90
24772;DHT22;12870;52.274;9.754;2023-09-18T13:34:11;24.40;99.90
24772;DHT22;12870;52.274;9.754;2023-09-18T13:36:37;24.30;99.90
24772;DHT22;12870;52.274;9.754;2023-09-18T13:39:03;24.40;99.90
24772;DHT22;12870;52.274;9.754;2023-09-18T13:41:29;24.30;99.90
24772;DHT22;12870;52.274;9.754;2023-09-18T13:43:56;24.50;99.90
24772;DHT22;12870;52.274;9.754;2023-09-18T13:46:22;24.80;99.90
24772;DHT22;12870;52.274;9.754;2023-09-18T13:48:49;25.00;99.90
24772;DHT22;12870;52.274;9.754;2023-09-18T13:51:14;25.00;99.90
24772;DHT22;12870;52.274;9.754;2023-09-18T13:53:40;25.20;99.90
24772;DHT22;12870;52.274;9.754;2023-09-18T13:56:07;25.20;99.90
24772;DHT22;12870;52.274;9.754;2023-09-18T13:58:32;25.20;99.90
24772;DHT22;12870;52.274;9.754;2023-09-18T14:00:59;25.10;99.90
24772;DHT22;12870;52.274;9.754;2023-09-18T14:03:25;24.90;99.90
24772;DHT22;12870;52.274;9.754;2023-09-18T14:05:50;24.60;99.90
24772;DHT22;12870;52.274;9.754;2023-09-18T14:08:17;24.50;99.90
24772;DHT22;12870;52.274;9.754;2023-09-18T14:10:44;24.50;99.90
24772;DHT22;12870;52.274;9.754;2023-09-18T14:13:09;24.50;99.90
24772;DHT22;12870;52.274;9.754;2023-09-18T14:15:35;24.50;99.90
24772;DHT22;12870;52.274;9.754;2023-09-18T14:18:02;24.50;99.90
24772;DHT22;12870;52.274;9.754;2023-09-18T14:20:28;24.50;99.90
24772;DHT22;12870;52.274;9.754;2023-09-18T14:22:54;24.40;99.90
24772;DHT22;12870;52.274;9.754;2023-09-18T14:25:20;24.40;99.90
24772;DHT22;12870;52.274;9.754;2023-09-18T14:27:48;24.30;99.90
24772;DHT22;12870;52.274;9.754;2023-09-18T14:30:14;24.20;99.90
24772;DHT22;12870;52.274;9.754;2023-09-18T14:32:39;24.30;99.90
24772;DHT22;12870;52.274;9.754;2023-09-18T14:35:05;24.20;99.90
24772;DHT22;12870;52.274;9.754;2023-09-18T14:37:33;24.20;99.90
24772;DHT22;12870;52.274;9.754;2023-09-18T14:39:59;24.30;99.90
24772;DHT22;12870;52.274;9.754;2023-09-18T14:42:25;24.30;99.90
24772;DHT22;12870;52.274;9.754;2023-09-18T14:44:51;24.20;99.90
24772;DHT22;12870;52.274;9.754;2023-09-18T14:47:16;24.20;99.90
24772;DHT22;12870;52.274;9.754;2023-09-18T14:49:42;24.20;99.90
24772;DHT22;12870;52.274;9.754;2023-09-18T14:52:14;24.20;99.90
24772;DHT22;12870;52.274;9.754;2023-09-18T14:54:41;24.20;99.90
24772;DHT22;12870;52.274;9.754;2023-09-18T14:57:07;24.30;99.90
24772;DHT22;12870;52.274;9.754;2023-09-18T14:59:32;24.30;99.90
24772;DHT22;12870;52.274;9.754;2023-09-18T15:01:58;24.40;99.90
24772;DHT22;12870;52.274;9.754;2023-09-18T15:04:24;24.40;99.90
24772;DHT22;12870;52.274;9.754;2023-09-18T15:06:49;24.20;99.90
24772;DHT22;12870;52.274;9.754;2023-09-18T15:09:15;24.30;99.90
24772;DHT22;12870;52.274;9.754;2023-09-18T15:11:42;24.30;99.90
24772;DHT22;12870;52.274;9.754;2023-09-18T15:14:08;24.40;99.90
24772;DHT22;12870;52.274;9.754;2023-09-18T15:16:35;24.50;99.90
24772;DHT22;12870;52.274;9.754;2023-09-18T15:19:01;24.50;99.90
24772;DHT22;12870;52.274;9.754;2023-09-18T15:21:29;24.60;99.90
24772;DHT22;12870;52.274;9.754;2023-09-18T15:23:55;24.50;99.90
24772;DHT22;12870;52.274;9.754;2023-09-18T15:26:21;24.50;99.90
24772;DHT22;12870;52.274;9.754;2023-09-18T15:28:47;24.50;99.90
24772;DHT22;12870;52.274;9.754;2023-09-18T15:31:13;24.50;99.90
24772;DHT22;12870;52.274;9.754;2023-09-18T15:33:38;24.60;99.90
24772;DHT22;12870;52.274;9.754;2023-09-18T15:36:06;25.00;99.90
24772;DHT22;12870;52.274;9.754;2023-09-18T15:38:31;25.70;99.90
24772;DHT22;12870;52.274;9.754;2023-09-18T15:40:57;26.10;99.90
24772;DHT22;12870;52.274;9.754;2023-09-18T15:43:25;26.90;99.90